createdAt,value
2019-04-11T00:02:14.645Z,4.20
2019-04-11T00:04:43.653Z,4.30
2019-04-11T00:07:12.536Z,5.10
2019-04-11T00:09:41.546Z,4.57
2019-04-11T00:12:10.870Z,4.40
2019-04-11T00:14:40.163Z,4.80
2019-04-11T00:17:09.985Z,4.40
2019-04-11T00:19:39.798Z,4.90
2019-04-11T00:22:09.013Z,4.80
2019-04-11T00:24:38.746Z,4.53
2019-04-11T00:27:08.705Z,4.17
2019-04-11T00:29:38.637Z,4.47
2019-04-11T00:32:09.297Z,5.00
2019-04-11T00:34:39.344Z,4.20
2019-04-11T00:37:08.652Z,3.97
2019-04-11T00:39:37.641Z,4.80
2019-04-11T00:42:06.659Z,4.20
2019-04-11T00:44:35.772Z,5.07
2019-04-11T00:47:05.022Z,4.27
2019-04-11T00:49:34.669Z,5.20
2019-04-11T00:52:04.546Z,4.40
2019-04-11T00:54:33.690Z,5.10
2019-04-11T00:57:02.617Z,5.90
2019-04-11T00:59:32.206Z,4.20
2019-04-11T01:02:01.407Z,3.80
2019-04-11T01:04:30.428Z,5.10
2019-04-11T01:07:00.634Z,4.30
2019-04-11T01:09:30.555Z,4.80
2019-04-11T01:12:00.475Z,4.47
2019-04-11T01:14:29.967Z,4.30
2019-04-11T01:16:59.108Z,4.20
2019-04-11T01:19:28.997Z,4.60
2019-04-11T01:21:59.498Z,3.60
2019-04-11T01:24:28.779Z,4.60
2019-04-11T01:26:57.715Z,3.77
2019-04-11T01:29:27.310Z,4.00
2019-04-11T01:32:00.167Z,3.60
2019-04-11T01:34:29.366Z,4.37
2019-04-11T01:36:58.174Z,4.27
2019-04-11T01:39:45.323Z,4.50
2019-04-11T01:42:16.168Z,3.87
2019-04-11T01:44:45.998Z,4.77
2019-04-11T01:47:23.869Z,4.17
2019-04-11T01:49:52.794Z,4.50
2019-04-11T01:52:22.422Z,4.70
2019-04-11T01:54:52.161Z,4.10
2019-04-11T01:57:22.132Z,4.70
2019-04-11T01:59:51.417Z,4.50
2019-04-11T02:02:42.440Z,4.07
2019-04-11T02:05:22.971Z,4.83
2019-04-11T02:10:32.859Z,4.40
2019-04-11T02:13:02.264Z,4.00
2019-04-11T02:15:32.355Z,4.00
2019-04-11T02:18:01.722Z,4.43
2019-04-11T02:20:31.214Z,5.20
2019-04-11T02:23:05.083Z,4.53
2019-04-11T02:25:46.974Z,4.30
2019-04-11T02:28:16.958Z,4.13
2019-04-11T02:30:48.800Z,3.97
2019-04-11T02:33:18.579Z,4.83
2019-04-11T02:35:49.209Z,4.27
2019-04-11T02:38:19.060Z,4.67
2019-04-11T02:40:49.909Z,4.20
2019-04-11T02:43:20.434Z,4.20
2019-04-11T02:45:58.183Z,4.37
2019-04-11T02:48:21.287Z,4.50
2019-04-11T02:50:51.003Z,4.53
2019-04-11T02:53:21.281Z,5.33
2019-04-11T02:55:52.072Z,4.50
2019-04-11T02:58:22.885Z,4.53
2019-04-11T03:00:53.683Z,4.30
2019-04-11T03:03:23.418Z,5.07
2019-04-11T03:05:53.252Z,4.70
2019-04-11T03:08:24.213Z,4.53
2019-04-11T03:10:53.675Z,4.93
2019-04-11T03:13:25.314Z,4.70
2019-04-11T03:16:10.150Z,5.33
2019-04-11T03:18:45.907Z,5.00
2019-04-11T03:20:59.828Z,5.00
2019-04-11T03:23:27.858Z,5.03
2019-04-11T03:25:57.334Z,4.87
2019-04-11T03:28:30.505Z,4.93
2019-04-11T03:31:26.834Z,4.83
2019-04-11T03:34:33.411Z,4.97
2019-04-11T03:36:53.950Z,4.73
2019-04-11T03:38:58.811Z,4.80
2019-04-11T03:41:21.674Z,5.77
2019-04-11T03:43:45.794Z,4.63
2019-04-11T03:46:24.857Z,5.77
2019-04-11T03:48:47.095Z,4.87
2019-04-11T03:51:08.850Z,6.10
2019-04-11T03:53:38.523Z,5.97
2019-04-11T03:56:09.641Z,5.53
2019-04-11T03:58:39.790Z,5.80
2019-04-11T04:01:11.529Z,5.07
2019-04-11T04:03:40.297Z,5.87
2019-04-11T04:06:09.689Z,5.13
2019-04-11T04:08:39.263Z,5.77
2019-04-11T04:11:27.779Z,5.70
2019-04-11T04:14:17.691Z,5.67
2019-04-11T04:17:10.640Z,6.20
2019-04-11T04:20:04.055Z,6.47
2019-04-11T04:22:49.711Z,6.10
2019-04-11T04:25:19.527Z,5.83
2019-04-11T04:27:51.305Z,6.63
2019-04-11T04:30:21.895Z,5.87
2019-04-11T04:32:52.243Z,6.30
2019-04-11T04:35:23.672Z,6.70
2019-04-11T04:37:52.275Z,6.17
2019-04-11T04:40:38.828Z,7.03
2019-04-11T04:42:55.985Z,6.47
2019-04-11T04:45:23.912Z,7.27
2019-04-11T04:47:58.945Z,5.93
2019-04-11T04:50:24.469Z,6.10
2019-04-11T04:52:53.822Z,6.90
2019-04-11T04:55:25.900Z,8.07
2019-04-11T04:57:55.449Z,7.20
2019-04-11T05:00:25.363Z,8.13
2019-04-11T05:02:56.901Z,6.40
2019-04-11T05:05:26.668Z,6.70
2019-04-11T05:07:58.384Z,7.60
2019-04-11T05:10:28.371Z,8.53
2019-04-11T05:12:59.038Z,7.80
2019-04-11T05:15:28.269Z,6.60
2019-04-11T05:17:57.702Z,8.10
2019-04-11T05:20:28.074Z,8.30
2019-04-11T05:22:57.981Z,8.00
2019-04-11T05:25:27.245Z,8.40
2019-04-11T05:27:56.604Z,9.33
2019-04-11T05:30:25.510Z,6.97
2019-04-11T05:32:55.607Z,7.83
2019-04-11T05:35:24.994Z,8.17
2019-04-11T05:37:53.978Z,8.30
2019-04-11T05:40:23.856Z,6.93
2019-04-11T05:42:54.151Z,7.87
2019-04-11T05:45:25.910Z,8.47
2019-04-11T05:47:56.624Z,7.20
2019-04-11T05:50:30.074Z,7.80
2019-04-11T05:53:03.566Z,8.80
2019-04-11T05:55:34.694Z,7.43
2019-04-11T05:58:08.636Z,7.70
2019-04-11T06:01:06.009Z,8.07
2019-04-11T06:03:39.431Z,10.13
2019-04-11T06:06:25.404Z,8.17
2019-04-11T06:09:00.316Z,8.23
2019-04-11T06:11:33.387Z,8.80
2019-04-11T06:14:11.147Z,8.07
2019-04-11T06:16:48.831Z,8.40
2019-04-11T06:19:33.241Z,8.00
2019-04-11T06:22:06.698Z,8.80
2019-04-11T06:24:52.815Z,8.87
2019-04-11T06:27:33.313Z,8.93
2019-04-11T06:30:40.159Z,7.40
2019-04-11T06:33:37.481Z,9.23
2019-04-11T06:36:26.697Z,9.20
2019-04-11T06:39:05.161Z,8.20
2019-04-11T06:41:43.684Z,9.40
2019-04-11T06:44:30.073Z,7.90
2019-04-11T06:47:14.987Z,8.30
2019-04-11T06:50:03.050Z,9.03
2019-04-11T06:52:32.820Z,8.57
2019-04-11T06:55:26.912Z,9.20
2019-04-11T06:58:04.669Z,7.60
2019-04-11T07:00:34.327Z,8.40
2019-04-11T07:03:03.573Z,9.50
2019-04-11T07:05:35.170Z,7.87
2019-04-11T07:08:05.471Z,9.07
2019-04-11T07:10:46.757Z,8.30
2019-04-11T07:13:33.979Z,7.87
2019-04-11T07:16:02.908Z,8.90
2019-04-11T07:19:00.934Z,9.77
2019-04-11T07:21:36.583Z,8.07
2019-04-11T07:24:24.562Z,9.17
2019-04-11T07:27:09.487Z,8.83
2019-04-11T07:30:00.818Z,8.10
2019-04-11T07:32:30.239Z,9.20
2019-04-11T07:35:17.374Z,10.30
2019-04-11T07:37:51.262Z,8.80
2019-04-11T07:40:41.214Z,9.77
2019-04-11T07:43:13.855Z,8.63
2019-04-11T07:46:02.635Z,8.97
2019-04-11T07:48:37.901Z,9.47
2019-04-11T07:51:27.475Z,8.40
2019-04-11T07:53:58.349Z,9.30
2019-04-11T07:56:58.700Z,9.07
2019-04-11T07:59:46.947Z,8.93
2019-04-11T08:02:33.466Z,9.37
2019-04-11T08:05:21.519Z,9.70
2019-04-11T08:08:09.466Z,8.37
2019-04-11T08:10:45.772Z,8.63
2019-04-11T08:13:20.703Z,9.30
2019-04-11T08:16:08.873Z,8.10
2019-04-11T08:18:45.352Z,8.43
2019-04-11T08:21:35.347Z,8.60
2019-04-11T08:24:04.942Z,7.97
2019-04-11T08:26:52.564Z,7.97
2019-04-11T08:29:22.191Z,8.93
2019-04-11T08:32:09.658Z,8.30
2019-04-11T08:34:45.859Z,8.87
2019-04-11T08:37:43.383Z,7.63
2019-04-11T08:40:13.446Z,8.30
2019-04-11T08:43:00.702Z,8.50
2019-04-11T08:45:29.839Z,8.17
2019-04-11T08:48:02.388Z,8.37
2019-04-11T08:50:35.261Z,7.93
2019-04-11T08:53:24.619Z,8.10
2019-04-11T08:56:00.223Z,8.00
2019-04-11T08:58:53.118Z,7.40
2019-04-11T09:01:22.270Z,7.57
2019-04-11T09:04:12.166Z,8.33
2019-04-11T09:06:41.597Z,7.27
2019-04-11T09:09:39.709Z,6.80
2019-04-11T09:12:12.104Z,7.43
2019-04-11T09:15:00.417Z,6.70
2019-04-11T09:17:40.681Z,7.43
2019-04-11T09:20:29.766Z,7.40
2019-04-11T09:23:06.552Z,6.87
2019-04-11T09:26:13.960Z,7.00
2019-04-11T09:28:49.407Z,5.90
2019-04-11T09:31:41.786Z,7.13
2019-04-11T09:34:31.085Z,6.47
2019-04-11T09:37:22.144Z,7.00
2019-04-11T09:40:26.304Z,6.50
2019-04-11T09:43:22.163Z,6.50
2019-04-11T09:46:19.054Z,5.47
2019-04-11T09:48:56.322Z,6.23
2019-04-11T09:52:02.755Z,6.27
2019-04-11T09:54:50.591Z,5.77
2019-04-11T09:57:41.921Z,6.70
2019-04-11T10:00:45.622Z,6.37
2019-04-11T10:03:19.663Z,5.87
2019-04-11T10:06:09.237Z,6.10
2019-04-11T10:08:43.741Z,6.40
2019-04-11T10:11:30.605Z,6.17
2019-04-11T10:14:02.262Z,6.63
2019-04-11T10:16:53.109Z,6.87
2019-04-11T10:19:25.667Z,5.70
2019-04-11T10:21:59.625Z,6.10
2019-04-11T10:24:46.458Z,5.20
2019-04-11T10:27:24.662Z,6.17
2019-04-11T10:30:15.594Z,5.93
2019-04-11T10:32:49.639Z,6.00
2019-04-11T10:35:36.828Z,6.03
2019-04-11T10:38:06.801Z,5.67
2019-04-11T10:41:13.161Z,7.10
2019-04-11T10:43:44.681Z,6.30
2019-04-11T10:46:28.283Z,6.13
2019-04-11T10:49:07.388Z,6.00
2019-04-11T10:51:47.688Z,5.90
2019-04-11T10:54:16.865Z,6.27
2019-04-11T10:57:20.925Z,6.30
2019-04-11T10:59:51.163Z,7.20
2019-04-11T11:02:45.655Z,6.13
2019-04-11T11:05:17.622Z,7.30
2019-04-11T11:07:46.782Z,6.37
2019-04-11T11:10:23.692Z,7.93
2019-04-11T11:13:10.496Z,6.10
2019-04-11T11:15:47.478Z,5.90
2019-04-11T11:19:01.975Z,6.90
2019-04-11T11:21:13.920Z,6.50
2019-04-11T11:24:00.964Z,6.10
2019-04-11T11:26:33.848Z,7.00
2019-04-11T11:29:21.067Z,6.40
2019-04-11T11:31:56.552Z,7.40
2019-04-11T11:34:32.697Z,5.73
2019-04-11T11:37:27.199Z,5.80
2019-04-11T11:40:21.514Z,6.73
2019-04-11T11:43:28.081Z,6.10
2019-04-11T11:46:03.987Z,6.67
2019-04-11T11:48:46.372Z,7.17
2019-04-11T11:51:33.286Z,6.60
2019-04-11T11:54:17.674Z,5.87
2019-04-11T11:56:47.869Z,6.17
2019-04-11T11:59:25.093Z,6.70
2019-04-11T12:02:04.315Z,5.83
2019-04-11T12:04:52.430Z,6.13
2019-04-11T12:07:25.159Z,7.00
2019-04-11T12:10:17.408Z,5.70
2019-04-11T12:12:58.148Z,5.90
2019-04-11T12:15:49.046Z,6.60
2019-04-11T12:18:40.396Z,6.47
2019-04-11T12:21:09.422Z,6.07
2019-04-11T12:24:03.736Z,6.73
2019-04-11T12:26:30.472Z,5.70
2019-04-11T12:29:12.771Z,6.40
2019-04-11T12:31:45.968Z,5.50
2019-04-11T12:34:45.012Z,7.00
2019-04-11T12:37:22.218Z,7.27
2019-04-11T12:40:09.710Z,6.83
2019-04-11T12:42:39.811Z,5.80
2019-04-11T12:45:27.241Z,6.47
2019-04-11T12:47:58.764Z,5.80
2019-04-11T12:50:45.526Z,6.37
2019-04-11T12:53:16.222Z,6.10
2019-04-11T12:56:02.814Z,5.97
2019-04-11T12:58:53.747Z,7.20
2019-04-11T13:01:40.646Z,5.70
2019-04-11T13:04:34.692Z,5.87
2019-04-11T13:07:33.721Z,6.10
2019-04-11T13:10:25.104Z,6.37
2019-04-11T13:13:19.233Z,5.90
2019-04-11T13:16:11.943Z,6.37
2019-04-11T13:19:03.183Z,6.73
2019-04-11T13:21:52.584Z,6.13
2019-04-11T13:24:43.717Z,6.73
2019-04-11T13:27:15.489Z,5.87
2019-04-11T13:30:03.496Z,6.30
2019-04-11T13:32:40.883Z,6.70
2019-04-11T13:35:15.199Z,6.30
2019-04-11T13:38:02.097Z,6.37
2019-04-11T13:40:40.493Z,5.70
2019-04-11T13:43:22.201Z,6.97
2019-04-11T13:46:10.185Z,7.27
2019-04-11T13:48:57.031Z,7.80
2019-04-11T13:51:39.859Z,6.37
2019-04-11T13:54:46.208Z,6.37
2019-04-11T13:57:46.055Z,7.07
2019-04-11T14:00:33.102Z,6.13
2019-04-11T14:03:19.620Z,7.03
2019-04-11T14:05:49.300Z,6.60
2019-04-11T14:08:21.893Z,6.40
2019-04-11T14:11:11.788Z,6.90
2019-04-11T14:13:42.433Z,7.50
2019-04-11T14:16:14.109Z,6.97
2019-04-11T14:19:20.371Z,7.10
2019-04-11T14:21:49.632Z,6.70
2019-04-11T14:24:41.538Z,5.97
2019-04-11T14:27:15.950Z,6.00
2019-04-11T14:30:06.957Z,6.53
2019-04-11T14:32:39.096Z,5.40
2019-04-11T14:35:26.159Z,6.17
2019-04-11T14:38:00.252Z,6.40
2019-04-11T14:40:37.538Z,6.17
2019-04-11T14:43:24.096Z,6.73
2019-04-11T14:46:24.251Z,7.20
2019-04-11T14:48:56.213Z,5.67
2019-04-11T14:51:50.314Z,8.10
2019-04-11T14:54:22.220Z,6.20
2019-04-11T14:57:07.366Z,7.17
2019-04-11T14:59:40.811Z,6.97
2019-04-11T15:02:14.476Z,6.47
2019-04-11T15:05:01.327Z,6.90
2019-04-11T15:07:31.542Z,7.10
2019-04-11T15:10:23.279Z,7.07
2019-04-11T15:12:52.374Z,7.30
2019-04-11T15:15:49.505Z,6.83
2019-04-11T15:18:19.818Z,6.53
2019-04-11T15:21:07.336Z,5.87
2019-04-11T15:23:39.781Z,6.30
2019-04-11T15:26:27.699Z,8.00
2019-04-11T15:29:06.630Z,8.00
2019-04-11T15:32:06.991Z,6.37
2019-04-11T15:34:44.336Z,7.20
2019-04-11T15:37:35.483Z,6.50
2019-04-11T15:40:07.742Z,6.30
2019-04-11T15:42:58.824Z,6.50
2019-04-11T15:45:46.670Z,6.80
2019-04-11T15:48:47.682Z,7.00
2019-04-11T15:51:22.037Z,6.43
2019-04-11T15:54:15.879Z,6.40
2019-04-11T15:56:50.010Z,6.40
2019-04-11T15:59:38.093Z,6.80
2019-04-11T16:02:23.224Z,6.70
2019-04-11T16:05:31.517Z,6.20
2019-04-11T16:08:17.128Z,6.33
2019-04-11T16:10:58.404Z,6.20
2019-04-11T16:13:46.499Z,7.50
2019-04-11T16:16:15.552Z,7.03
2019-04-11T16:19:19.175Z,6.50
2019-04-11T16:22:09.431Z,5.60
2019-04-11T16:24:38.459Z,6.20
2019-04-11T16:27:26.356Z,6.97
2019-04-11T16:30:00.439Z,6.63
2019-04-11T16:32:30.187Z,7.97
2019-04-11T16:35:06.154Z,6.70
2019-04-11T16:37:35.166Z,6.97
2019-04-11T16:40:23.123Z,7.30
2019-04-11T16:42:59.270Z,7.60
2019-04-11T16:46:05.080Z,7.07
2019-04-11T16:48:34.172Z,7.33
2019-04-11T16:51:05.628Z,7.00
2019-04-11T16:53:34.003Z,6.77
2019-04-11T16:56:02.867Z,7.50
2019-04-11T16:58:31.825Z,7.93
2019-04-11T17:01:00.751Z,7.50
2019-04-11T17:03:29.746Z,7.67
2019-04-11T17:06:06.875Z,7.83
2019-04-11T17:08:46.880Z,9.40
2019-04-11T17:11:19.313Z,8.67
2019-04-11T17:13:48.366Z,8.10
2019-04-11T17:16:18.934Z,8.60
2019-04-11T17:18:47.814Z,7.90
2019-04-11T17:21:16.961Z,7.60
2019-04-11T17:23:47.168Z,8.93
2019-04-11T17:26:16.549Z,8.00
2019-04-11T17:28:45.548Z,8.40
2019-04-11T17:31:14.614Z,7.63
2019-04-11T17:33:43.755Z,7.13
2019-04-11T17:36:12.910Z,8.00
2019-04-11T17:38:41.788Z,8.20
2019-04-11T17:41:12.082Z,8.23
2019-04-11T17:43:42.239Z,8.60
2019-04-11T17:46:11.365Z,9.10
2019-04-11T17:48:40.281Z,8.47
2019-04-11T17:51:09.681Z,8.23
2019-04-11T17:53:38.838Z,8.87
2019-04-11T17:56:07.742Z,8.87
2019-04-11T17:58:36.577Z,9.37
2019-04-11T18:01:07.148Z,9.30
2019-04-11T18:03:36.149Z,9.03
2019-04-11T18:06:06.849Z,9.03
2019-04-11T18:08:35.984Z,9.13
2019-04-11T18:11:05.187Z,8.30
2019-04-11T18:13:34.186Z,8.83
2019-04-11T18:16:03.151Z,7.87
2019-04-11T18:18:34.874Z,7.50
2019-04-11T18:21:07.110Z,7.63
2019-04-11T18:23:35.828Z,7.73
2019-04-11T18:26:04.465Z,7.50
2019-04-11T18:28:33.438Z,7.67
2019-04-11T18:31:02.350Z,7.17
2019-04-11T18:33:32.274Z,8.37
2019-04-11T18:36:02.327Z,8.60
2019-04-11T18:38:32.614Z,8.20
2019-04-11T18:41:01.899Z,7.47
2019-04-11T18:43:30.869Z,8.13
2019-04-11T18:45:59.941Z,6.20
2019-04-11T18:48:32.658Z,8.17
2019-04-11T18:51:01.506Z,7.83
2019-04-11T18:53:30.348Z,8.50
2019-04-11T18:56:01.539Z,7.83
2019-04-11T18:58:33.676Z,7.90
2019-04-11T19:01:00.584Z,7.93
2019-04-11T19:03:36.172Z,8.30
2019-04-11T19:06:00.231Z,8.57
2019-04-11T19:08:29.242Z,6.87
2019-04-11T19:10:58.545Z,7.53
2019-04-11T19:13:27.724Z,9.27
2019-04-11T19:15:57.026Z,9.07
2019-04-11T19:18:26.099Z,8.10
2019-04-11T19:20:55.054Z,7.50
2019-04-11T19:23:23.996Z,7.47
2019-04-11T19:25:52.941Z,8.10
2019-04-11T19:28:24.924Z,8.00
2019-04-11T19:30:53.977Z,7.40
2019-04-11T19:33:23.326Z,7.70
2019-04-11T19:35:52.361Z,7.60
2019-04-11T19:38:26.153Z,8.10
2019-04-11T19:40:55.673Z,7.50
2019-04-11T19:43:24.903Z,6.87
2019-04-11T19:45:53.811Z,7.13
2019-04-11T19:48:25.111Z,7.77
2019-04-11T19:50:53.594Z,6.20
2019-04-11T19:53:22.715Z,6.87
2019-04-11T19:55:57.860Z,6.90
2019-04-11T19:58:27.363Z,6.20
2019-04-11T20:00:56.438Z,6.90
2019-04-11T20:03:25.389Z,7.13
2019-04-11T20:05:54.294Z,7.00
2019-04-11T20:08:23.325Z,5.97
2019-04-11T20:10:52.211Z,6.20
2019-04-11T20:13:21.592Z,6.80
2019-04-11T20:15:51.037Z,7.00
2019-04-11T20:18:22.688Z,6.87
2019-04-11T20:20:52.242Z,6.00
2019-04-11T20:23:21.396Z,7.00
2019-04-11T20:25:50.378Z,5.47
2019-04-11T20:28:20.709Z,7.53
2019-04-11T20:30:49.840Z,6.40
2019-04-11T20:33:26.961Z,6.27
2019-04-11T20:35:52.889Z,7.03
2019-04-11T20:38:25.832Z,6.47
2019-04-11T20:40:55.243Z,7.47
2019-04-11T20:43:25.466Z,7.90
2019-04-11T20:45:58.071Z,6.50
2019-04-11T20:48:25.514Z,6.67
2019-04-11T20:50:58.898Z,7.23
2019-04-11T20:53:27.889Z,7.33
2019-04-11T20:55:57.030Z,7.47
2019-04-11T20:58:27.597Z,6.23
2019-04-11T21:00:57.046Z,7.30
2019-04-11T21:03:29.879Z,6.67
2019-04-11T21:06:05.711Z,6.47
2019-04-11T21:08:36.702Z,7.93
2019-04-11T21:11:05.397Z,5.97
2019-04-11T21:13:38.170Z,6.90
2019-04-11T21:16:05.516Z,7.10
2019-04-11T21:18:34.403Z,6.97
2019-04-11T21:21:03.345Z,7.47
2019-04-11T21:23:32.301Z,8.20
2019-04-11T21:26:01.237Z,6.27
2019-04-11T21:28:32.846Z,7.10
2019-04-11T21:31:01.834Z,6.77
2019-04-11T21:33:34.223Z,7.30
2019-04-11T21:36:02.043Z,6.80
2019-04-11T21:38:31.573Z,7.33
2019-04-11T21:41:00.880Z,6.30
2019-04-11T21:43:29.864Z,7.00
2019-04-11T21:45:59.826Z,6.53
2019-04-11T21:48:28.766Z,6.97
2019-04-11T21:50:57.617Z,7.70
2019-04-11T21:53:36.117Z,6.93
2019-04-11T21:55:57.180Z,7.00
2019-04-11T21:58:25.978Z,7.13
2019-04-11T22:01:03.775Z,6.93
2019-04-11T22:03:32.894Z,7.33
2019-04-11T22:06:01.859Z,7.47
2019-04-11T22:08:31.925Z,7.00
2019-04-11T22:11:03.119Z,7.80
2019-04-11T22:13:32.087Z,7.20
2019-04-11T22:16:00.995Z,6.23
2019-04-11T22:18:29.959Z,6.70
2019-04-11T22:20:58.793Z,6.77
2019-04-11T22:23:27.602Z,6.83
2019-04-11T22:25:56.570Z,6.47
2019-04-11T22:28:25.462Z,6.37
2019-04-11T22:30:55.221Z,6.17
2019-04-11T22:33:35.260Z,6.73
2019-04-11T22:36:04.263Z,7.13
2019-04-11T22:38:33.182Z,7.23
2019-04-11T22:41:02.763Z,6.17
2019-04-11T22:43:31.855Z,7.60
2019-04-11T22:46:00.774Z,7.30
2019-04-11T22:48:29.639Z,7.60
2019-04-11T22:50:58.611Z,7.00
2019-04-11T22:53:27.546Z,7.57
2019-04-11T22:55:56.385Z,6.30
2019-04-11T22:58:25.331Z,7.10
2019-04-11T23:00:54.228Z,7.57
2019-04-11T23:03:37.930Z,6.40
2019-04-11T23:06:06.849Z,7.57
2019-04-11T23:08:35.766Z,6.97
2019-04-11T23:11:05.658Z,7.00
2019-04-11T23:13:34.497Z,7.97
2019-04-11T23:16:03.432Z,7.17
2019-04-11T23:18:32.326Z,8.33
2019-04-11T23:21:01.132Z,7.17
2019-04-11T23:23:30.000Z,7.43
2019-04-11T23:25:58.848Z,6.67
2019-04-11T23:28:27.680Z,7.23
2019-04-11T23:30:56.578Z,7.30
2019-04-11T23:33:25.490Z,7.10
2019-04-11T23:35:54.366Z,7.13
2019-04-11T23:38:23.861Z,6.60
2019-04-11T23:40:53.873Z,6.80
2019-04-11T23:43:22.848Z,6.53
2019-04-11T23:45:52.150Z,6.80
2019-04-11T23:48:23.772Z,7.83
2019-04-11T23:50:54.824Z,7.43
2019-04-11T23:53:22.325Z,7.13
2019-04-11T23:55:51.486Z,6.27
2019-04-11T23:58:20.451Z,7.07
